createdAt,value
2018-08-09T00:01:43.840Z,27.30
2018-08-09T00:04:11.315Z,27.30
2018-08-09T00:06:38.855Z,27.20
2018-08-09T00:09:07.475Z,27.10
2018-08-09T00:11:34.927Z,26.90
2018-08-09T00:14:02.476Z,27.00
2018-08-09T00:16:29.978Z,27.10
2018-08-09T00:18:57.515Z,27.00
2018-08-09T00:21:25.012Z,27.00
2018-08-09T00:23:52.450Z,27.10
2018-08-09T00:26:19.871Z,27.10
2018-08-09T00:28:47.324Z,27.10
2018-08-09T00:31:14.767Z,27.10
2018-08-09T00:33:42.159Z,27.10
2018-08-09T00:36:09.581Z,27.10
2018-08-09T00:38:37.308Z,27.10
2018-08-09T00:41:04.734Z,27.10
2018-08-09T00:43:32.279Z,27.10
2018-08-09T00:45:59.690Z,27.10
2018-08-09T00:48:27.127Z,27.00
2018-08-09T00:50:54.561Z,27.00
2018-08-09T00:53:22.056Z,27.00
2018-08-09T00:55:49.523Z,27.00
2018-08-09T00:58:17.721Z,27.10
2018-08-09T01:00:45.162Z,27.00
2018-08-09T01:03:12.603Z,26.90
2018-08-09T01:05:40.114Z,26.90
2018-08-09T01:08:07.525Z,26.90
2018-08-09T01:10:34.875Z,26.90
2018-08-09T01:13:02.437Z,26.80
2018-08-09T01:15:29.972Z,26.80
2018-08-09T01:17:57.553Z,26.90
2018-08-09T01:20:25.067Z,26.80
2018-08-09T01:22:52.508Z,26.80
2018-08-09T01:25:20.008Z,26.80
2018-08-09T01:27:47.465Z,26.70
2018-08-09T01:30:14.953Z,26.60
2018-08-09T01:32:42.521Z,26.60
2018-08-09T01:35:10.037Z,26.50
2018-08-09T01:37:37.449Z,26.50
2018-08-09T01:40:05.153Z,26.50
2018-08-09T01:42:43.964Z,26.40
2018-08-09T01:45:11.453Z,26.40
2018-08-09T01:47:39.071Z,26.30
2018-08-09T01:50:06.500Z,26.30
2018-08-09T01:52:33.990Z,26.30
2018-08-09T01:55:01.471Z,26.30
2018-08-09T01:57:29.009Z,26.20
2018-08-09T01:59:56.503Z,26.20
2018-08-09T02:02:23.938Z,26.20
2018-08-09T02:04:51.434Z,26.10
2018-08-09T02:07:18.876Z,26.10
2018-08-09T02:09:46.396Z,26.00
2018-08-09T02:12:13.879Z,26.10
2018-08-09T02:14:41.301Z,26.20
2018-08-09T02:17:08.717Z,26.20
2018-08-09T02:19:36.268Z,26.10
2018-08-09T02:22:03.771Z,26.20
2018-08-09T02:24:31.237Z,26.20
2018-08-09T02:26:58.646Z,26.10
2018-08-09T02:29:26.040Z,26.00
2018-08-09T02:31:53.416Z,26.00
2018-08-09T02:34:20.827Z,26.00
2018-08-09T02:36:48.269Z,26.00
2018-08-09T02:39:15.778Z,26.00
2018-08-09T02:41:43.207Z,25.90
2018-08-09T02:44:10.619Z,25.70
2018-08-09T02:46:38.081Z,25.70
2018-08-09T02:49:05.543Z,25.80
2018-08-09T02:51:32.956Z,25.70
2018-08-09T02:54:00.428Z,25.80
2018-08-09T02:56:27.759Z,25.70
2018-08-09T02:58:55.263Z,25.70
2018-08-09T03:01:22.703Z,25.50
2018-08-09T03:03:50.026Z,25.60
2018-08-09T03:06:17.455Z,25.60
2018-08-09T03:08:44.925Z,25.60
2018-08-09T03:11:12.403Z,25.60
2018-08-09T03:13:39.942Z,25.60
2018-08-09T03:16:07.315Z,25.50
2018-08-09T03:18:34.754Z,25.40
2018-08-09T03:21:02.214Z,25.40
2018-08-09T03:23:29.611Z,25.50
2018-08-09T03:25:57.112Z,25.40
2018-08-09T03:28:24.518Z,25.20
2018-08-09T03:30:51.987Z,25.20
2018-08-09T03:33:19.390Z,25.20
2018-08-09T03:35:46.773Z,25.20
2018-08-09T03:38:14.150Z,25.10
2018-08-09T03:40:41.714Z,25.20
2018-08-09T03:43:09.071Z,25.20
2018-08-09T03:45:36.516Z,25.20
2018-08-09T03:48:04.011Z,25.20
2018-08-09T03:50:31.342Z,25.10
2018-08-09T03:52:58.732Z,25.00
2018-08-09T03:55:26.158Z,24.90
2018-08-09T03:57:53.902Z,24.90
2018-08-09T04:00:21.349Z,24.80
2018-08-09T04:02:48.827Z,24.80
2018-08-09T04:05:16.315Z,24.80
2018-08-09T04:07:43.788Z,24.80
2018-08-09T04:10:11.338Z,24.80
2018-08-09T04:12:38.735Z,24.80
2018-08-09T04:15:07.443Z,24.80
2018-08-09T04:17:34.905Z,24.80
2018-08-09T04:20:02.487Z,24.90
2018-08-09T04:22:29.852Z,24.80
2018-08-09T04:24:57.250Z,24.80
2018-08-09T04:27:24.894Z,24.70
2018-08-09T04:29:52.399Z,24.70
2018-08-09T04:32:26.161Z,24.90
2018-08-09T04:34:53.632Z,24.60
2018-08-09T04:37:21.184Z,24.30
2018-08-09T04:39:53.097Z,24.20
2018-08-09T04:42:24.965Z,24.10
2018-08-09T04:47:52.016Z,24.00
2018-08-09T04:50:27.799Z,24.20
2018-08-09T04:52:58.913Z,24.10
2018-08-09T04:55:26.301Z,24.10
2018-08-09T04:57:53.708Z,24.10
2018-08-09T05:00:21.233Z,24.10
2018-08-09T05:02:48.672Z,24.10
2018-08-09T05:05:38.075Z,24.30
2018-08-09T05:08:20.823Z,24.40
2018-08-09T05:10:51.235Z,24.30
2018-08-09T05:13:30.229Z,24.40
2018-08-09T05:18:46.367Z,24.50
2018-08-09T05:21:17.059Z,24.30
2018-08-09T05:23:44.589Z,24.50
2018-08-09T05:26:11.934Z,24.60
2018-08-09T05:28:39.417Z,24.70
2018-08-09T05:31:06.816Z,24.80
2018-08-09T05:33:34.328Z,24.90
2018-08-09T05:36:01.736Z,24.80
2018-08-09T05:38:29.217Z,24.80
2018-08-09T05:40:57.139Z,25.10
2018-08-09T05:43:24.614Z,25.00
2018-08-09T05:45:52.086Z,25.10
2018-08-09T05:48:19.595Z,25.20
2018-08-09T05:50:47.029Z,25.10
2018-08-09T05:53:14.606Z,25.20
2018-08-09T05:55:42.038Z,25.20
2018-08-09T05:58:09.519Z,25.20
2018-08-09T06:00:36.971Z,25.20
2018-08-09T06:03:04.462Z,25.40
2018-08-09T06:05:31.954Z,25.50
2018-08-09T06:07:59.763Z,25.60
2018-08-09T06:10:28.567Z,25.70
2018-08-09T06:12:57.671Z,25.70
2018-08-09T06:15:25.523Z,25.80
2018-08-09T06:18:03.403Z,25.70
2018-08-09T06:20:31.917Z,25.60
2018-08-09T06:22:59.365Z,25.30
2018-08-09T06:25:26.811Z,25.30
2018-08-09T06:27:54.567Z,25.60
2018-08-09T06:30:22.138Z,25.70
2018-08-09T06:32:49.574Z,25.80
2018-08-09T06:35:17.097Z,25.70
2018-08-09T06:37:44.633Z,25.80
2018-08-09T06:40:13.194Z,25.80
2018-08-09T06:42:41.880Z,25.90
2018-08-09T06:45:09.927Z,26.00
2018-08-09T06:47:37.449Z,26.20
2018-08-09T06:50:05.558Z,26.40
2018-08-09T06:52:33.074Z,26.60
2018-08-09T06:55:00.551Z,26.80
2018-08-09T06:57:28.003Z,26.90
2018-08-09T06:59:55.451Z,27.00
2018-08-09T07:02:22.926Z,27.00
2018-08-09T07:04:50.394Z,27.10
2018-08-09T07:07:17.840Z,27.10
2018-08-09T07:09:45.259Z,27.00
2018-08-09T07:12:12.688Z,27.10
2018-08-09T07:14:40.185Z,27.10
2018-08-09T07:17:07.683Z,27.30
2018-08-09T07:19:35.200Z,27.40
2018-08-09T07:22:02.865Z,27.40
2018-08-09T07:24:30.245Z,27.40
2018-08-09T07:26:57.743Z,27.50
2018-08-09T07:29:25.166Z,27.60
2018-08-09T07:31:52.650Z,27.60
2018-08-09T07:34:20.003Z,27.70
2018-08-09T07:36:47.419Z,27.80
2018-08-09T07:39:15.129Z,27.80
2018-08-09T07:41:42.598Z,27.90
2018-08-09T07:44:11.719Z,28.10
2018-08-09T07:46:40.949Z,28.30
2018-08-09T07:49:08.422Z,28.40
2018-08-09T07:51:35.854Z,28.40
2018-08-09T07:54:03.431Z,28.30
2018-08-09T07:56:30.994Z,28.00
2018-08-09T07:58:58.474Z,28.20
2018-08-09T08:01:25.969Z,28.40
2018-08-09T08:03:53.450Z,28.20
2018-08-09T08:06:21.110Z,28.10
2018-08-09T08:08:48.697Z,28.00
2018-08-09T08:11:16.269Z,27.80
2018-08-09T08:13:43.782Z,27.80
2018-08-09T08:16:11.393Z,27.70
2018-08-09T08:18:38.980Z,27.90
2018-08-09T08:21:06.557Z,28.10
2018-08-09T08:23:34.253Z,28.30
2018-08-09T08:26:02.509Z,28.40
2018-08-09T08:28:30.202Z,28.50
2018-08-09T08:30:57.776Z,28.40
2018-08-09T08:33:25.339Z,28.30
2018-08-09T08:35:52.797Z,28.50
2018-08-09T08:38:21.051Z,28.50
2018-08-09T08:40:50.375Z,28.40
2018-08-09T08:43:17.910Z,28.50
2018-08-09T08:45:45.414Z,28.40
2018-08-09T08:48:12.839Z,28.40
2018-08-09T08:50:40.412Z,28.50
2018-08-09T08:53:07.851Z,28.80
2018-08-09T08:55:35.426Z,28.90
2018-08-09T08:58:03.001Z,28.70
2018-08-09T09:00:30.463Z,28.60
2018-08-09T09:02:57.976Z,28.70
2018-08-09T09:05:25.532Z,28.90
2018-08-09T09:07:53.041Z,29.00
2018-08-09T09:10:20.583Z,29.20
2018-08-09T09:12:48.002Z,29.10
2018-08-09T09:15:15.898Z,29.20
2018-08-09T09:17:44.129Z,29.40
2018-08-09T09:20:13.449Z,29.60
2018-08-09T09:22:41.748Z,29.70
2018-08-09T09:25:09.927Z,29.70
2018-08-09T09:27:37.462Z,29.70
2018-08-09T09:30:13.321Z,29.70
2018-08-09T09:32:40.956Z,29.80
2018-08-09T09:35:09.019Z,29.60
2018-08-09T09:37:36.782Z,29.70
2018-08-09T09:40:05.475Z,29.80
2018-08-09T09:42:41.240Z,30.10
2018-08-09T09:45:09.640Z,30.30
2018-08-09T09:47:37.068Z,30.50
2018-08-09T09:50:04.942Z,30.70
2018-08-09T09:52:32.432Z,30.80
2018-08-09T09:54:59.974Z,31.10
2018-08-09T09:57:31.612Z,31.50
2018-08-09T10:00:05.125Z,31.90
2018-08-09T10:02:33.411Z,32.30
2018-08-09T10:05:01.017Z,32.70
2018-08-09T10:07:28.612Z,32.90
2018-08-09T10:09:56.999Z,33.20
2018-08-09T10:12:42.743Z,33.40
2018-08-09T10:15:10.395Z,33.50
2018-08-09T10:17:38.028Z,33.70
2018-08-09T10:20:09.574Z,33.80
2018-08-09T10:22:37.289Z,34.00
2018-08-09T10:25:05.322Z,34.20
2018-08-09T10:27:32.741Z,34.40
2018-08-09T10:30:01.847Z,34.70
2018-08-09T10:32:30.591Z,34.90
2018-08-09T10:35:10.611Z,34.80
2018-08-09T10:37:38.186Z,34.90
2018-08-09T10:40:05.879Z,35.00
2018-08-09T10:42:33.433Z,34.90
2018-08-09T10:45:00.880Z,34.80
2018-08-09T10:47:28.361Z,34.80
2018-08-09T10:49:56.170Z,34.90
2018-08-09T10:52:23.606Z,35.20
2018-08-09T10:54:51.098Z,35.40
2018-08-09T10:57:18.956Z,35.60
2018-08-09T10:59:46.350Z,35.70
2018-08-09T11:02:14.062Z,35.80
2018-08-09T11:04:41.514Z,35.80
2018-08-09T11:07:09.622Z,35.90
2018-08-09T11:09:37.940Z,36.20
2018-08-09T11:12:06.449Z,36.20
2018-08-09T11:14:35.200Z,36.40
2018-08-09T11:17:02.686Z,36.70
2018-08-09T11:19:30.612Z,37.20
2018-08-09T11:21:58.678Z,37.50
2018-08-09T11:24:33.235Z,37.80
2018-08-09T11:27:00.793Z,37.80
2018-08-09T11:29:28.478Z,37.80
2018-08-09T11:31:56.021Z,37.80
2018-08-09T11:34:24.172Z,37.80
2018-08-09T11:36:51.679Z,37.60
2018-08-09T11:39:19.217Z,37.80
2018-08-09T11:41:46.784Z,38.00
2018-08-09T11:44:14.247Z,37.80
2018-08-09T11:46:42.259Z,37.90
2018-08-09T11:49:09.750Z,37.70
2018-08-09T11:51:37.246Z,37.70
2018-08-09T11:54:05.239Z,37.50
2018-08-09T11:56:32.782Z,37.20
2018-08-09T11:59:00.224Z,37.20
2018-08-09T12:01:27.826Z,37.20
2018-08-09T12:03:55.268Z,36.60
2018-08-09T12:06:22.810Z,36.70
2018-08-09T12:08:50.816Z,37.10
2018-08-09T12:11:18.398Z,37.30
2018-08-09T12:13:45.928Z,37.50
2018-08-09T12:16:13.458Z,37.60
2018-08-09T12:18:41.078Z,37.70
2018-08-09T12:21:08.734Z,37.30
2018-08-09T12:23:36.263Z,37.10
2018-08-09T12:26:03.853Z,34.90
2018-08-09T12:28:31.283Z,33.20
2018-08-09T12:30:58.855Z,31.40
2018-08-09T12:33:26.331Z,30.00
2018-08-09T12:35:53.765Z,29.50
2018-08-09T12:38:21.215Z,28.60
2018-08-09T12:40:48.761Z,27.90
2018-08-09T12:43:16.227Z,27.70
2018-08-09T12:45:44.085Z,27.70
2018-08-09T12:48:11.708Z,27.80
2018-08-09T12:50:39.315Z,27.80
2018-08-09T12:53:06.783Z,27.80
2018-08-09T12:55:34.407Z,28.10
2018-08-09T12:58:02.088Z,28.40
2018-08-09T13:00:29.661Z,28.80
2018-08-09T13:02:57.393Z,28.80
2018-08-09T13:05:25.514Z,28.80
2018-08-09T13:07:53.100Z,28.90
2018-08-09T13:10:20.560Z,29.00
2018-08-09T13:12:48.140Z,28.90
2018-08-09T13:15:18.162Z,29.00
2018-08-09T13:17:48.368Z,28.90
2018-08-09T13:20:18.157Z,29.00
2018-08-09T13:22:46.129Z,29.20
2018-08-09T13:25:13.717Z,29.80
2018-08-09T13:27:41.214Z,30.30
2018-08-09T13:30:11.953Z,30.70
2018-08-09T13:32:39.854Z,30.20
2018-08-09T13:35:24.881Z,29.90
2018-08-09T13:37:52.301Z,29.80
2018-08-09T13:40:24.747Z,29.60
2018-08-09T13:42:57.485Z,29.70
2018-08-09T13:45:33.504Z,29.60
2018-08-09T13:48:02.920Z,29.40
2018-08-09T13:50:30.536Z,29.10
2018-08-09T13:53:17.685Z,28.90
2018-08-09T13:55:45.208Z,28.60
2018-08-09T13:58:12.833Z,28.30
2018-08-09T14:00:44.743Z,28.10
2018-08-09T14:03:24.129Z,28.00
2018-08-09T14:05:53.187Z,28.00
2018-08-09T14:08:29.679Z,28.00
2018-08-09T14:10:57.757Z,28.00
2018-08-09T14:13:25.224Z,28.20
2018-08-09T14:15:52.712Z,28.60
2018-08-09T14:18:20.203Z,29.00
2018-08-09T14:20:47.850Z,29.40
2018-08-09T14:23:15.413Z,30.00
2018-08-09T14:25:42.982Z,29.80
2018-08-09T14:28:10.637Z,29.80
2018-08-09T14:30:38.297Z,30.00
2018-08-09T14:33:07.605Z,30.30
2018-08-09T14:35:35.262Z,30.50
2018-08-09T14:38:02.903Z,30.30
2018-08-09T14:40:30.760Z,30.30
2018-08-09T14:42:58.235Z,30.50
2018-08-09T14:45:25.779Z,30.90
2018-08-09T14:47:53.365Z,30.60
2018-08-09T14:50:20.797Z,30.50
2018-08-09T14:52:48.353Z,30.60
2018-08-09T14:55:15.826Z,30.30
2018-08-09T14:57:44.631Z,30.20
2018-08-09T15:00:16.264Z,30.00
2018-08-09T15:02:44.484Z,30.00
2018-08-09T15:05:11.947Z,29.70
2018-08-09T15:07:39.613Z,29.70
2018-08-09T15:10:07.270Z,29.90
2018-08-09T15:12:34.817Z,30.20
2018-08-09T15:15:02.221Z,30.40
2018-08-09T15:17:40.972Z,30.40
2018-08-09T15:20:10.520Z,30.60
2018-08-09T15:22:38.070Z,30.30
2018-08-09T15:25:06.468Z,30.40
2018-08-09T15:27:34.022Z,30.10
2018-08-09T15:30:01.473Z,29.90
2018-08-09T15:32:28.966Z,29.80
2018-08-09T15:34:56.441Z,29.70
2018-08-09T15:37:23.844Z,29.60
2018-08-09T15:39:51.448Z,29.40
2018-08-09T15:42:23.476Z,29.30
2018-08-09T15:44:51.142Z,29.10
2018-08-09T15:47:18.607Z,29.30
2018-08-09T15:49:45.998Z,29.30
2018-08-09T15:52:13.395Z,29.10
2018-08-09T15:54:40.892Z,29.00
2018-08-09T15:57:08.460Z,28.90
2018-08-09T15:59:35.975Z,28.90
2018-08-09T16:02:03.599Z,28.80
2018-08-09T16:04:31.225Z,28.90
2018-08-09T16:06:58.708Z,29.00
2018-08-09T16:09:26.175Z,28.90
2018-08-09T16:11:53.689Z,28.80
2018-08-09T16:14:21.296Z,28.90
2018-08-09T16:16:48.786Z,28.80
2018-08-09T16:19:16.416Z,28.80
2018-08-09T16:21:43.920Z,28.70
2018-08-09T16:24:11.416Z,28.70
2018-08-09T16:26:38.943Z,28.60
2018-08-09T16:29:06.410Z,28.60
2018-08-09T16:31:34.040Z,28.60
2018-08-09T16:34:01.584Z,28.50
2018-08-09T16:36:31.678Z,28.40
2018-08-09T16:38:59.290Z,28.40
2018-08-09T16:41:26.893Z,28.50
2018-08-09T16:43:54.318Z,28.70
2018-08-09T16:46:21.766Z,28.90
2018-08-09T16:48:49.265Z,29.00
2018-08-09T16:51:16.732Z,28.80
2018-08-09T16:53:45.312Z,28.80
2018-08-09T16:56:12.780Z,29.00
2018-08-09T16:58:40.204Z,28.90
2018-08-09T17:01:07.808Z,28.80
2018-08-09T17:03:35.340Z,28.80
2018-08-09T17:06:02.964Z,28.60
2018-08-09T17:08:30.489Z,28.70
2018-08-09T17:10:58.113Z,28.30
2018-08-09T17:13:25.657Z,27.70
2018-08-09T17:15:53.183Z,27.30
2018-08-09T17:18:20.804Z,27.20
2018-08-09T17:20:48.385Z,27.10
2018-08-09T17:23:15.924Z,26.90
2018-08-09T17:25:43.485Z,27.00
2018-08-09T17:28:11.138Z,27.10
2018-08-09T17:30:39.482Z,26.90
2018-08-09T17:33:09.090Z,26.80
2018-08-09T17:35:36.640Z,26.90
2018-08-09T17:38:04.280Z,26.90
2018-08-09T17:40:32.792Z,26.80
2018-08-09T17:43:01.085Z,26.90
2018-08-09T17:45:30.853Z,26.90
2018-08-09T17:47:58.750Z,26.90
2018-08-09T17:50:26.368Z,27.00
2018-08-09T17:52:55.478Z,26.80
2018-08-09T17:55:22.891Z,26.80
2018-08-09T17:57:50.391Z,26.70
2018-08-09T18:00:21.411Z,26.60
2018-08-09T18:02:49.060Z,26.80
2018-08-09T18:05:16.528Z,26.70
2018-08-09T18:07:44.089Z,26.60
2018-08-09T18:10:14.826Z,26.50
2018-08-09T18:12:42.390Z,26.50
2018-08-09T18:15:09.903Z,26.60
2018-08-09T18:17:38.271Z,26.60
2018-08-09T18:20:10.294Z,26.50
2018-08-09T18:22:37.681Z,26.50
2018-08-09T18:25:06.257Z,26.20
2018-08-09T18:27:33.733Z,26.20
2018-08-09T18:30:01.185Z,26.20
2018-08-09T18:32:28.750Z,26.30
2018-08-09T18:34:56.305Z,26.40
2018-08-09T18:37:23.769Z,26.40
2018-08-09T18:39:51.309Z,26.30
2018-08-09T18:42:18.840Z,26.20
2018-08-09T18:44:46.489Z,26.30
2018-08-09T18:47:14.012Z,26.30
2018-08-09T18:49:41.734Z,26.10
2018-08-09T18:52:09.235Z,26.30
2018-08-09T18:54:36.735Z,26.30
2018-08-09T18:57:04.344Z,26.30
2018-08-09T18:59:32.542Z,26.40
2018-08-09T19:02:00.474Z,26.50
2018-08-09T19:04:28.179Z,26.30
2018-08-09T19:06:56.285Z,26.20
2018-08-09T19:09:26.433Z,26.30
2018-08-09T19:11:56.923Z,26.20
2018-08-09T19:14:24.460Z,26.10
2018-08-09T19:16:51.879Z,26.10
2018-08-09T19:19:19.474Z,26.20
2018-08-09T19:21:47.036Z,26.30
2018-08-09T19:24:14.569Z,26.10
2018-08-09T19:26:42.204Z,26.10
2018-08-09T19:33:31.819Z,25.90
2018-08-09T19:36:09.717Z,25.90
2018-08-09T19:38:37.392Z,25.80
2018-08-09T19:41:04.870Z,25.70
2018-08-09T19:43:32.511Z,26.00
2018-08-09T19:46:01.090Z,25.70
2018-08-09T19:48:28.821Z,25.50
2018-08-09T19:50:56.392Z,25.40
2018-08-09T19:53:28.487Z,25.30
2018-08-09T19:55:56.005Z,25.30
2018-08-09T19:58:28.949Z,25.30
2018-08-09T20:00:56.537Z,25.40
2018-08-09T20:03:24.132Z,25.30
2018-08-09T20:05:51.777Z,25.30
2018-08-09T20:08:19.323Z,25.30
2018-08-09T20:10:47.029Z,25.30
2018-08-09T20:13:14.852Z,25.40
2018-08-09T20:15:42.591Z,25.30
2018-08-09T20:18:10.059Z,25.30
2018-08-09T20:20:38.041Z,25.30
2018-08-09T20:23:06.031Z,25.30
2018-08-09T20:25:33.587Z,25.30
2018-08-09T20:28:01.212Z,25.40
2018-08-09T20:30:28.804Z,25.20
2018-08-09T20:32:56.418Z,25.30
2018-08-09T20:35:24.356Z,25.30
2018-08-09T20:37:52.122Z,25.30
2018-08-09T20:40:21.066Z,25.20
2018-08-09T20:42:49.530Z,25.00
2018-08-09T20:45:18.589Z,25.00
2018-08-09T20:47:52.290Z,25.00
2018-08-09T20:50:23.343Z,24.80
2018-08-09T20:52:51.664Z,24.80
2018-08-09T20:55:25.744Z,24.90
2018-08-09T20:58:01.670Z,25.00
2018-08-09T21:00:30.910Z,24.90
2018-08-09T21:02:59.895Z,24.80
2018-08-09T21:17:18.085Z,24.80
2018-08-09T21:19:45.589Z,24.80
2018-08-09T21:22:13.223Z,24.80
2018-08-09T21:24:40.782Z,24.80
2018-08-09T21:27:09.803Z,24.60
2018-08-09T21:33:04.327Z,24.50
2018-08-09T21:35:35.860Z,24.40
2018-08-09T21:41:01.720Z,24.10
2018-08-09T21:43:29.272Z,24.00
2018-08-09T21:51:59.740Z,24.10
2018-08-09T21:57:19.803Z,24.10
2018-08-09T21:59:47.230Z,23.20
2018-08-09T22:02:30.862Z,22.40
2018-08-09T22:07:53.172Z,21.60
2018-08-09T22:16:39.300Z,21.40
2018-08-09T22:19:12.276Z,21.40
2018-08-09T22:21:45.475Z,21.40
2018-08-09T22:24:34.010Z,21.40
2018-08-09T22:27:08.083Z,21.60
2018-08-09T22:29:45.903Z,21.50
2018-08-09T22:32:23.689Z,21.40
2018-08-09T22:37:54.264Z,21.50
2018-08-09T22:43:15.166Z,21.70
2018-08-09T22:51:37.602Z,21.60
2018-08-09T22:54:18.268Z,21.40
2018-08-09T22:56:57.742Z,21.50
2018-08-09T22:59:31.203Z,21.30
2018-08-09T23:02:11.177Z,21.40
2018-08-09T23:10:24.408Z,21.70
2018-08-09T23:15:44.828Z,21.60
2018-08-09T23:21:05.253Z,21.60
2018-08-09T23:23:32.819Z,21.50
2018-08-09T23:29:09.709Z,21.40
2018-08-09T23:31:45.722Z,21.40
2018-08-09T23:37:12.515Z,21.30
2018-08-09T23:39:40.024Z,21.10
2018-08-09T23:42:07.537Z,21.20
2018-08-09T23:44:47.151Z,21.40
2018-08-09T23:53:09.675Z,21.20
2018-08-09T23:58:40.349Z,21.20
